createdAt,value
2018-12-09T00:01:13.919Z,9.30
2018-12-09T00:03:46.474Z,9.00
2018-12-09T00:12:20.631Z,8.90
2018-12-09T00:14:49.324Z,8.90
2018-12-09T00:17:18.585Z,9.10
2018-12-09T00:19:48.867Z,9.30
2018-12-09T00:22:17.503Z,9.30
2018-12-09T00:24:48.600Z,9.30
2018-12-09T00:27:17.847Z,9.30
2018-12-09T00:29:48.522Z,9.40
2018-12-09T00:32:18.429Z,9.40
2018-12-09T00:34:47.550Z,9.30
2018-12-09T00:37:16.413Z,9.30
2018-12-09T00:39:45.064Z,9.30
2018-12-09T00:42:13.451Z,9.50
2018-12-09T00:44:42.176Z,9.70
2018-12-09T00:47:10.954Z,9.80
2018-12-09T00:49:39.371Z,9.90
2018-12-09T00:52:07.899Z,9.90
2018-12-09T00:54:36.584Z,9.90
2018-12-09T00:57:04.982Z,9.90
2018-12-09T00:59:33.405Z,9.90
2018-12-09T01:02:06.216Z,10.00
2018-12-09T01:24:28.909Z,10.10
2018-12-09T01:26:58.193Z,10.20
2018-12-09T01:29:27.007Z,10.30
2018-12-09T01:31:55.539Z,10.10
2018-12-09T01:34:24.915Z,10.20
2018-12-09T01:36:53.478Z,10.40
2018-12-09T01:39:22.234Z,10.30
2018-12-09T01:41:50.821Z,10.20
2018-12-09T01:44:20.273Z,10.30
2018-12-09T01:46:49.742Z,10.20
2018-12-09T01:49:18.826Z,10.50
2018-12-09T01:51:47.644Z,10.20
2018-12-09T01:54:18.713Z,10.10
2018-12-09T01:56:47.189Z,10.30
2018-12-09T01:59:15.780Z,10.50
2018-12-09T02:01:45.866Z,10.50
2018-12-09T02:04:14.790Z,10.60
2018-12-09T02:06:43.794Z,10.50
2018-12-09T02:09:12.490Z,10.40
2018-12-09T02:11:41.010Z,10.30
2018-12-09T02:14:09.754Z,10.10
2018-12-09T02:16:38.502Z,10.20
2018-12-09T02:19:16.858Z,10.10
2018-12-09T02:21:46.205Z,10.30
2018-12-09T02:24:16.429Z,10.30
2018-12-09T02:26:46.199Z,10.40
2018-12-09T02:29:15.010Z,10.40
2018-12-09T02:31:43.810Z,10.40
2018-12-09T02:34:12.574Z,10.20
2018-12-09T02:36:41.259Z,10.30
2018-12-09T02:39:10.895Z,10.20
2018-12-09T02:41:39.516Z,10.30
2018-12-09T02:44:09.822Z,10.10
2018-12-09T02:46:38.377Z,10.10
2018-12-09T02:49:07.043Z,10.20
2018-12-09T02:51:36.533Z,10.20
2018-12-09T02:54:05.652Z,10.20
2018-12-09T02:56:34.043Z,10.30
2018-12-09T02:59:04.105Z,10.50
2018-12-09T03:01:32.509Z,10.50
2018-12-09T03:04:00.997Z,10.60
2018-12-09T03:06:29.721Z,10.60
2018-12-09T03:08:58.340Z,10.40
2018-12-09T03:11:29.813Z,10.40
2018-12-09T03:13:58.511Z,10.20
2018-12-09T03:16:26.997Z,10.30
2018-12-09T03:18:56.124Z,10.10
2018-12-09T03:21:24.461Z,10.10
2018-12-09T03:23:53.046Z,10.40
2018-12-09T03:26:21.704Z,10.30
2018-12-09T03:28:50.354Z,10.20
2018-12-09T03:31:18.796Z,10.00
2018-12-09T03:33:47.254Z,9.90
2018-12-09T03:36:15.979Z,9.70
2018-12-09T03:38:44.466Z,9.50
2018-12-09T03:41:13.970Z,9.60
2018-12-09T03:43:42.708Z,9.40
2018-12-09T03:46:11.758Z,9.30
2018-12-09T03:48:40.610Z,8.90
2018-12-09T03:51:09.263Z,8.60
2018-12-09T03:53:37.924Z,8.20
2018-12-09T03:56:07.021Z,8.00
2018-12-09T03:58:36.303Z,8.20
2018-12-09T04:01:05.268Z,8.00
2018-12-09T04:03:34.056Z,8.00
2018-12-09T04:06:02.541Z,8.00
2018-12-09T04:08:30.889Z,8.30
2018-12-09T04:10:59.329Z,8.60
2018-12-09T04:13:27.712Z,8.70
2018-12-09T04:15:56.436Z,8.90
2018-12-09T04:18:24.809Z,9.00
2018-12-09T04:20:53.424Z,9.00
2018-12-09T04:23:21.725Z,8.90
2018-12-09T04:25:50.305Z,8.80
2018-12-09T04:28:18.947Z,8.90
2018-12-09T04:30:47.587Z,8.90
2018-12-09T04:33:15.918Z,9.00
2018-12-09T04:35:44.170Z,8.80
2018-12-09T04:38:12.671Z,8.70
2018-12-09T04:40:41.054Z,8.90
2018-12-09T04:43:09.468Z,8.70
2018-12-09T04:45:37.839Z,8.90
2018-12-09T04:48:06.162Z,9.00
2018-12-09T04:50:34.872Z,9.00
2018-12-09T04:53:03.299Z,9.00
2018-12-09T04:55:31.657Z,9.00
2018-12-09T04:58:00.001Z,9.20
2018-12-09T05:00:39.793Z,9.00
2018-12-09T05:03:08.961Z,8.90
2018-12-09T05:05:38.008Z,9.10
2018-12-09T05:08:06.347Z,9.20
2018-12-09T05:10:34.874Z,9.40
2018-12-09T05:13:03.304Z,9.30
2018-12-09T05:15:31.626Z,9.30
2018-12-09T05:17:59.976Z,9.30
2018-12-09T05:20:28.305Z,9.40
2018-12-09T05:22:56.576Z,9.50
2018-12-09T05:25:24.885Z,9.50
2018-12-09T05:27:53.115Z,9.70
2018-12-09T05:30:22.950Z,9.80
2018-12-09T05:32:51.786Z,9.50
2018-12-09T05:35:21.137Z,9.40
2018-12-09T05:37:49.468Z,9.50
2018-12-09T05:40:17.786Z,9.50
2018-12-09T05:42:46.209Z,9.30
2018-12-09T05:45:14.543Z,9.40
2018-12-09T05:47:43.026Z,9.20
2018-12-09T05:50:11.376Z,9.10
2018-12-09T05:52:39.795Z,8.70
2018-12-09T05:55:08.151Z,8.50
2018-12-09T05:57:36.746Z,8.60
2018-12-09T06:00:05.916Z,8.70
2018-12-09T06:03:00.846Z,8.60
2018-12-09T06:05:47.095Z,8.50
2018-12-09T06:08:26.493Z,8.60
2018-12-09T06:17:16.915Z,8.90
2018-12-09T06:19:50.480Z,8.80
2018-12-09T06:22:25.183Z,8.80
2018-12-09T06:25:14.040Z,8.60
2018-12-09T06:27:51.297Z,8.50
2018-12-09T06:30:25.472Z,8.70
2018-12-09T06:33:00.135Z,9.00
2018-12-09T06:35:46.469Z,9.30
2018-12-09T06:41:23.463Z,9.30
2018-12-09T06:43:58.837Z,9.20
2018-12-09T06:46:30.964Z,9.40
2018-12-09T06:49:09.221Z,9.50
2018-12-09T06:51:53.044Z,9.50
2018-12-09T06:57:27.512Z,9.30
2018-12-09T07:00:02.580Z,9.30
2018-12-09T07:02:41.330Z,9.50
2018-12-09T07:08:28.253Z,9.40
2018-12-09T07:11:05.408Z,9.40
2018-12-09T07:13:48.901Z,9.60
2018-12-09T07:16:26.285Z,9.40
2018-12-09T07:19:10.626Z,9.50
2018-12-09T07:24:50.560Z,9.40
2018-12-09T07:30:30.949Z,9.40
2018-12-09T07:33:17.834Z,9.60
2018-12-09T07:52:51.137Z,10.10
2018-12-09T08:50:24.503Z,10.40
2018-12-09T08:56:15.032Z,10.50
2018-12-09T09:16:58.192Z,10.40
2018-12-09T09:19:42.323Z,10.10
2018-12-09T09:50:04.002Z,10.30
2018-12-09T10:04:56.204Z,10.40
2018-12-09T10:13:39.018Z,10.50
2018-12-09T10:16:24.405Z,10.50
2018-12-09T10:22:03.517Z,10.50
2018-12-09T10:24:40.048Z,10.60
2018-12-09T10:27:12.803Z,10.20
2018-12-09T10:29:54.518Z,10.20
2018-12-09T10:35:31.929Z,10.50
2018-12-09T10:38:19.986Z,10.60
2018-12-09T10:41:01.943Z,10.60
2018-12-09T10:43:33.777Z,10.70
2018-12-09T10:46:14.063Z,10.90
2018-12-09T10:48:52.971Z,10.50
2018-12-09T10:51:29.645Z,10.80
2018-12-09T11:03:26.970Z,10.40
2018-12-09T12:12:48.041Z,10.90
2018-12-09T12:15:16.367Z,11.30
2018-12-09T12:17:44.711Z,11.50
2018-12-09T12:23:08.506Z,11.30
2018-12-09T12:25:36.812Z,11.40
2018-12-09T12:28:11.027Z,11.30
2018-12-09T12:30:39.422Z,11.10
2018-12-09T12:36:03.666Z,10.90
2018-12-09T12:38:32.150Z,11.20
2018-12-09T12:41:00.493Z,11.10
2018-12-09T12:43:29.745Z,10.80
2018-12-09T12:45:58.118Z,10.60
2018-12-09T12:48:26.726Z,9.80
2018-12-09T12:50:55.405Z,8.60
2018-12-09T12:53:23.679Z,8.00
2018-12-09T12:55:52.191Z,8.00
2018-12-09T12:58:20.687Z,7.90
2018-12-09T13:00:49.568Z,8.00
2018-12-09T13:03:17.837Z,7.90
2018-12-09T13:05:47.504Z,7.90
2018-12-09T13:08:16.099Z,7.90
2018-12-09T13:10:44.377Z,8.20
2018-12-09T13:13:12.676Z,8.20
2018-12-09T13:15:40.993Z,8.30
2018-12-09T13:18:09.977Z,8.30
2018-12-09T13:20:38.238Z,8.30
2018-12-09T13:23:06.677Z,8.40
2018-12-09T13:25:35.166Z,8.10
2018-12-09T13:28:07.037Z,8.30
2018-12-09T13:30:35.447Z,8.60
2018-12-09T13:33:03.897Z,8.70
2018-12-09T13:35:32.346Z,8.80
2018-12-09T13:38:00.717Z,8.90
2018-12-09T13:40:29.114Z,9.00
2018-12-09T13:42:57.345Z,9.20
2018-12-09T13:45:25.682Z,9.20
2018-12-09T13:47:54.235Z,9.20
2018-12-09T13:50:22.843Z,9.10
2018-12-09T13:52:51.123Z,8.90
2018-12-09T13:55:19.443Z,9.00
2018-12-09T13:57:47.710Z,9.10
2018-12-09T14:00:19.408Z,9.20
2018-12-09T14:02:47.997Z,9.50
2018-12-09T14:05:16.373Z,9.60
2018-12-09T14:07:44.657Z,9.40
2018-12-09T14:10:13.048Z,9.50
2018-12-09T14:12:41.900Z,9.20
2018-12-09T14:15:10.310Z,9.40
2018-12-09T14:17:39.202Z,9.60
2018-12-09T14:20:09.630Z,9.50
2018-12-09T14:22:40.246Z,9.30
2018-12-09T14:25:13.491Z,9.20
2018-12-09T14:27:46.509Z,9.30
2018-12-09T14:30:18.571Z,9.40
2018-12-09T14:32:48.617Z,9.30
2018-12-09T14:35:17.261Z,9.40
2018-12-09T14:37:46.404Z,9.10
2018-12-09T14:40:15.089Z,9.20
2018-12-09T14:42:45.692Z,9.20
2018-12-09T14:45:15.352Z,9.00
2018-12-09T14:47:43.794Z,9.00
2018-12-09T14:50:12.125Z,9.00
2018-12-09T14:52:42.742Z,9.00
2018-12-09T14:55:11.773Z,9.30
2018-12-09T14:57:40.633Z,9.50
2018-12-09T15:00:10.241Z,9.50
2018-12-09T15:02:39.891Z,9.60
2018-12-09T15:05:08.659Z,9.50
2018-12-09T15:07:37.029Z,9.60
2018-12-09T15:10:08.901Z,9.50
2018-12-09T15:12:36.006Z,9.70
2018-12-09T15:15:04.837Z,9.70
2018-12-09T15:17:33.280Z,9.40
2018-12-09T15:20:01.680Z,9.40
2018-12-09T15:22:30.201Z,9.40
2018-12-09T15:24:58.611Z,9.80
2018-12-09T15:27:26.892Z,9.70
2018-12-09T15:29:55.737Z,9.70
2018-12-09T15:32:24.491Z,9.50
2018-12-09T15:34:52.954Z,9.50
2018-12-09T15:37:21.466Z,9.30
2018-12-09T15:39:49.861Z,9.50
2018-12-09T15:42:21.631Z,9.70
2018-12-09T15:44:54.918Z,9.70
2018-12-09T15:47:23.350Z,9.40
2018-12-09T15:52:46.778Z,9.00
2018-12-09T15:55:15.258Z,9.20
2018-12-09T15:57:48.349Z,8.40
2018-12-09T16:00:18.952Z,7.90
2018-12-09T16:02:59.049Z,7.10
2018-12-09T16:08:43.679Z,7.60
2018-12-09T16:14:11.319Z,8.40
2018-12-09T16:22:36.222Z,8.80
2018-12-09T16:31:26.120Z,9.10
2018-12-09T16:33:57.302Z,9.00
2018-12-09T16:36:33.963Z,9.00
2018-12-09T16:39:10.363Z,9.00
2018-12-09T16:44:42.344Z,8.70
2018-12-09T16:47:21.244Z,8.90
2018-12-09T16:49:51.946Z,8.80
2018-12-09T16:52:22.475Z,8.70
2018-12-09T16:54:52.596Z,8.50
2018-12-09T16:57:22.582Z,8.30
2018-12-09T16:59:52.180Z,8.30
2018-12-09T17:02:22.839Z,8.20
2018-12-09T17:07:51.777Z,8.10
2018-12-09T17:19:10.852Z,8.20
2018-12-09T17:36:33.359Z,8.30
2018-12-09T17:39:29.412Z,8.50
2018-12-09T17:42:10.068Z,8.50
2018-12-09T17:59:42.021Z,8.50
2018-12-09T18:02:14.896Z,8.60
2018-12-09T18:04:45.790Z,8.60
2018-12-09T18:07:16.055Z,8.40
2018-12-09T18:09:47.016Z,8.60
2018-12-09T18:12:17.000Z,8.50
2018-12-09T18:14:50.102Z,8.60
2018-12-09T18:17:27.063Z,8.40
2018-12-09T18:19:58.799Z,8.50
2018-12-09T18:22:31.120Z,8.80
2018-12-09T18:25:01.364Z,8.70
2018-12-09T18:27:30.986Z,8.40
2018-12-09T18:30:09.009Z,8.10
2018-12-09T18:32:39.047Z,8.40
2018-12-09T18:35:13.466Z,8.40
2018-12-09T18:37:46.478Z,8.60
2018-12-09T18:40:24.355Z,8.60
2018-12-09T18:42:54.892Z,8.50
2018-12-09T18:46:44.019Z,8.70
2018-12-09T19:22:59.733Z,8.20
2018-12-09T19:28:30.661Z,8.10
2018-12-09T20:11:03.278Z,8.10
2018-12-09T20:13:35.237Z,8.20
2018-12-09T20:16:18.624Z,8.10
2018-12-09T20:19:13.937Z,8.10
2018-12-09T20:21:52.909Z,8.10
2018-12-09T20:24:29.949Z,8.00
2018-12-09T20:27:01.691Z,8.00
2018-12-09T20:29:49.155Z,8.00
2018-12-09T20:32:35.614Z,8.30
2018-12-09T20:35:12.090Z,8.20
2018-12-09T21:03:08.069Z,7.90
2018-12-09T21:11:41.594Z,8.20
2018-12-09T21:14:18.221Z,8.30
2018-12-09T21:16:53.988Z,8.40
2018-12-09T21:19:30.206Z,8.40
2018-12-09T21:22:07.463Z,8.10
2018-12-09T21:24:43.014Z,8.10
2018-12-09T21:30:01.798Z,8.10
2018-12-09T21:32:35.558Z,8.00
2018-12-09T21:35:06.032Z,8.30
2018-12-09T21:37:47.058Z,8.20
2018-12-09T21:49:44.561Z,8.00
2018-12-09T22:14:02.651Z,8.20
2018-12-09T22:22:34.206Z,7.90
2018-12-09T22:31:10.920Z,7.90
2018-12-09T22:36:41.092Z,7.80
2018-12-09T22:39:12.288Z,7.40
2018-12-09T22:41:43.512Z,7.50
2018-12-09T23:07:21.722Z,7.90
2018-12-09T23:09:53.742Z,7.70
2018-12-09T23:18:41.533Z,7.60
2018-12-09T23:24:41.126Z,7.90
